Time;durP1;ratioP1;P1;durP2;ratioP2;P2;SDS_P1;SDS_P2;PMS_P1;PMS_P2;Temp;Humidity;BMP_temperature;BMP_pressure;BME280_temperature;BME280_humidity;BME280_pressure;Samples;Min_cycle;Max_cycle;Signal;HPM_P1;HPM_P2
2022/07/05 00:01:58;;;;;;;10.23;5.50;;;16.90;62.20;;;;;;5023317;28;20032;-76
2022/07/05 00:04:24;;;;;;;5.80;3.00;;;16.80;61.70;;;;;;5005681;28;20313;-76
2022/07/05 00:09:33;;;;;;;4.88;2.17;;;16.80;64.80;;;;;;5024999;28;20052;-76
2022/07/05 00:11:59;;;;;;;7.85;3.53;;;16.70;65.60;;;;;;5025630;28;20029;-76
2022/07/05 00:14:24;;;;;;;4.85;2.50;;;16.80;65.30;;;;;;5008797;28;20396;-76
2022/07/05 00:16:50;;;;;;;4.85;3.13;;;16.80;66.60;;;;;;5012352;28;20048;-76
2022/07/05 00:19:16;;;;;;;3.05;1.98;;;16.70;67.50;;;;;;5009618;28;20045;-75
2022/07/05 00:21:41;;;;;;;2.75;2.20;;;16.70;67.30;;;;;;5005407;28;20033;-75
2022/07/05 00:24:07;;;;;;;7.00;2.10;;;16.70;64.60;;;;;;5021266;28;20397;-75
2022/07/05 00:26:32;;;;;;;3.60;2.17;;;16.60;65.10;;;;;;5024220;28;20041;-74
2022/07/05 00:28:58;;;;;;;3.55;1.88;;;16.60;62.70;;;;;;5023091;28;20037;-76
2022/07/05 00:31:23;;;;;;;3.92;2.05;;;16.40;63.70;;;;;;4986753;28;20033;-75
2022/07/05 00:33:49;;;;;;;4.32;2.10;;;16.40;63.50;;;;;;5010104;28;20029;-74
2022/07/05 00:36:14;;;;;;;2.78;1.90;;;16.40;69.90;;;;;;5006009;28;20052;-76
2022/07/05 00:38:40;;;;;;;2.35;1.98;;;16.30;67.80;;;;;;5004623;28;20091;-75
2022/07/05 00:41:06;;;;;;;7.93;2.20;;;16.40;65.00;;;;;;5022559;28;20032;-75
2022/07/05 00:43:31;;;;;;;4.75;1.95;;;16.40;65.40;;;;;;5021630;28;20580;-76
2022/07/05 00:45:57;;;;;;;5.35;1.95;;;16.40;63.10;;;;;;5006927;28;20049;-74
2022/07/05 00:48:22;;;;;;;4.15;2.08;;;16.30;63.80;;;;;;5006606;28;20160;-74
2022/07/05 00:50:48;;;;;;;3.22;1.90;;;16.30;64.20;;;;;;5024040;28;20026;-74
2022/07/05 00:53:14;;;;;;;4.95;1.90;;;16.20;67.60;;;;;;5018805;28;20033;-75
2022/07/05 00:55:39;;;;;;;4.93;2.13;;;16.10;70.10;;;;;;5010958;28;20036;-75
2022/07/05 00:58:05;;;;;;;2.33;2.00;;;16.10;69.50;;;;;;5024667;28;20029;-74
2022/07/05 01:00:31;;;;;;;3.70;1.85;;;16.00;69.90;;;;;;4994667;28;20029;-76
2022/07/05 01:02:56;;;;;;;3.28;1.85;;;15.90;72.30;;;;;;5004040;28;20032;-76
2022/07/05 01:05:22;;;;;;;4.35;2.13;;;15.80;72.30;;;;;;5008105;28;20068;-76
2022/07/05 01:07:47;;;;;;;2.42;1.65;;;15.80;72.40;;;;;;5024603;28;20064;-74
2022/07/05 01:10:13;;;;;;;3.35;2.10;;;16.00;65.60;;;;;;5021122;28;20393;-74
2022/07/05 01:12:39;;;;;;;1.52;1.30;;;16.10;64.60;;;;;;5008947;28;20040;-75
2022/07/05 01:15:06;;;;;;;1.95;1.60;;;16.20;62.30;;;;;;5025015;28;20034;-74
2022/07/05 01:17:32;;;;;;;2.35;1.83;;;16.40;62.70;;;;;;5025343;28;20453;-74
2022/07/05 01:19:58;;;;;;;1.65;1.55;;;16.50;62.90;;;;;;5009528;28;20052;-74
2022/07/05 01:22:26;;;;;;;3.28;1.63;;;16.30;61.10;;;;;;5011754;28;20057;-76
2022/07/05 01:24:51;;;;;;;1.67;1.58;;;16.20;60.70;;;;;;5028430;28;20026;-75
2022/07/05 01:27:20;;;;;;;2.05;1.50;;;16.30;61.40;;;;;;5026401;28;20029;-75
2022/07/05 01:29:46;;;;;;;4.47;2.30;;;16.40;62.00;;;;;;5009204;28;20037;-75
2022/07/05 01:32:12;;;;;;;1.80;1.70;;;16.40;61.90;;;;;;4994208;28;20508;-75
2022/07/05 01:34:38;;;;;;;2.95;1.70;;;16.40;62.20;;;;;;5026803;28;20111;-75
2022/07/05 01:37:04;;;;;;;2.80;2.25;;;16.30;62.50;;;;;;5027264;28;20029;-74
2022/07/05 01:39:30;;;;;;;3.58;2.10;;;16.10;61.50;;;;;;5013541;28;20037;-75
2022/07/05 01:41:55;;;;;;;4.00;2.35;;;16.10;61.90;;;;;;5009066;28;20504;-75
2022/07/05 01:44:21;;;;;;;2.60;2.05;;;16.00;62.10;;;;;;5008363;28;20507;-76
2022/07/05 01:46:47;;;;;;;4.75;2.42;;;16.00;61.80;;;;;;4998087;28;20035;-75
2022/07/05 01:49:13;;;;;;;2.30;1.98;;;16.00;65.80;;;;;;5009256;28;20042;-75
2022/07/05 01:51:54;;;;;;;2.50;1.50;;;16.10;61.90;;;;;;5008259;28;20044;-75
2022/07/05 01:54:20;;;;;;;4.32;2.33;;;16.20;62.20;;;;;;4994059;28;20061;-74
2022/07/05 01:56:45;;;;;;;4.20;2.50;;;16.50;64.00;;;;;;4997699;28;20067;-75
2022/07/05 01:59:11;;;;;;;4.38;2.05;;;16.40;62.70;;;;;;5024372;28;20033;-75
2022/07/05 02:01:38;;;;;;;2.35;2.15;;;16.30;62.90;;;;;;4992429;28;20036;-74
2022/07/05 02:04:04;;;;;;;2.08;1.88;;;16.30;62.70;;;;;;5024151;28;20119;-75
2022/07/05 02:06:32;;;;;;;2.03;1.75;;;16.20;63.00;;;;;;5042226;28;20662;-75
2022/07/05 02:08:57;;;;;;;1.80;1.65;;;16.20;64.90;;;;;;4997312;28;20108;-75
2022/07/05 02:11:23;;;;;;;3.13;2.60;;;16.10;62.10;;;;;;5027508;28;20128;-75
2022/07/05 02:13:49;;;;;;;4.47;2.72;;;15.90;62.10;;;;;;5025287;28;20115;-76
2022/07/05 02:16:14;;;;;;;7.13;3.05;;;15.80;61.80;;;;;;5022845;28;20057;-75
2022/07/05 02:18:40;;;;;;;5.80;2.13;;;15.70;63.10;;;;;;5012710;28;20033;-74
2022/07/05 02:21:05;;;;;;;3.13;1.60;;;15.70;62.00;;;;;;5024671;28;20030;-75
2022/07/05 02:23:31;;;;;;;2.20;1.83;;;15.80;62.20;;;;;;5009991;28;20051;-75
2022/07/05 02:25:56;;;;;;;2.58;1.95;;;15.90;64.70;;;;;;5028281;28;20044;-75
2022/07/05 02:28:22;;;;;;;2.03;1.83;;;16.00;65.10;;;;;;5007634;28;20029;-76
2022/07/05 02:30:48;;;;;;;3.83;1.70;;;16.00;65.20;;;;;;5009745;28;20036;-74
2022/07/05 02:33:13;;;;;;;3.33;2.28;;;16.10;65.50;;;;;;5025062;28;20024;-74
2022/07/05 02:35:39;;;;;;;2.88;2.05;;;16.00;66.10;;;;;;5009486;28;20030;-76
2022/07/05 02:38:04;;;;;;;2.00;1.80;;;16.00;66.20;;;;;;5012516;28;20017;-76
2022/07/05 02:40:30;;;;;;;2.50;2.25;;;15.90;66.10;;;;;;5007926;28;20033;-74
2022/07/05 02:42:55;;;;;;;4.30;2.25;;;15.70;64.90;;;;;;5026748;28;20060;-75
2022/07/05 02:45:21;;;;;;;2.95;2.72;;;15.70;65.30;;;;;;5012623;28;20037;-75
2022/07/05 02:47:47;;;;;;;2.80;1.92;;;15.60;64.80;;;;;;5011903;28;20037;-75
2022/07/05 02:50:12;;;;;;;3.78;2.28;;;15.70;65.80;;;;;;5040101;28;20093;-79
2022/07/05 02:52:38;;;;;;;3.08;1.95;;;15.70;66.20;;;;;;5040369;28;20029;-79
2022/07/05 02:55:04;;;;;;;2.90;2.05;;;15.70;64.70;;;;;;5025631;28;20053;-79
2022/07/05 02:57:30;;;;;;;2.83;2.33;;;15.50;64.60;;;;;;5009979;28;20499;-79
2022/07/05 02:59:55;;;;;;;3.40;2.35;;;15.40;64.50;;;;;;5024393;28;20120;-77
2022/07/05 03:02:22;;;;;;;3.60;2.55;;;15.30;64.40;;;;;;5007321;28;20049;-79
2022/07/05 03:04:47;;;;;;;3.47;2.75;;;15.20;64.20;;;;;;5018883;28;20024;-79
2022/07/05 03:07:13;;;;;;;3.78;2.08;;;15.20;64.40;;;;;;5005971;28;20434;-78
2022/07/05 03:09:38;;;;;;;2.25;1.90;;;15.20;64.80;;;;;;5038428;28;20398;-78
2022/07/05 03:12:04;;;;;;;4.15;1.88;;;15.40;66.20;;;;;;5000697;28;20128;-78
2022/07/05 03:14:30;;;;;;;3.33;2.35;;;15.50;66.10;;;;;;4994735;28;20036;-76
2022/07/05 03:16:56;;;;;;;5.63;2.95;;;15.50;67.80;;;;;;4987467;28;20036;-78
2022/07/05 03:19:21;;;;;;;4.55;2.72;;;15.30;65.70;;;;;;5024967;28;20033;-78
2022/07/05 03:21:47;;;;;;;4.18;2.20;;;15.20;64.90;;;;;;5023065;28;20434;-78
2022/07/05 03:24:12;;;;;;;3.78;2.17;;;15.30;66.30;;;;;;5021116;28;20036;-78
2022/07/05 03:26:38;;;;;;;1.70;1.60;;;15.40;66.30;;;;;;5004207;28;20047;-78
2022/07/05 03:29:03;;;;;;;4.50;2.30;;;15.70;67.70;;;;;;5022061;28;20116;-78
2022/07/05 03:31:29;;;;;;;3.88;2.05;;;15.90;68.70;;;;;;5007938;28;20068;-79
2022/07/05 03:33:56;;;;;;;3.55;2.30;;;15.70;67.60;;;;;;5010649;28;20079;-78
2022/07/05 03:36:22;;;;;;;2.13;1.98;;;15.50;66.60;;;;;;5006636;28;20037;-78
2022/07/05 03:38:47;;;;;;;5.03;2.70;;;15.40;66.60;;;;;;5024426;28;20037;-78
2022/07/05 03:41:13;;;;;;;2.95;2.17;;;15.40;66.90;;;;;;5007246;28;20561;-79
2022/07/05 03:43:38;;;;;;;3.55;2.22;;;15.30;66.40;;;;;;5005304;28;20454;-78
2022/07/05 03:46:04;;;;;;;3.72;2.50;;;15.30;67.70;;;;;;5007601;28;20128;-78
2022/07/05 03:48:30;;;;;;;2.53;2.33;;;15.20;73.60;;;;;;4995003;28;20384;-78
2022/07/05 03:50:55;;;;;;;3.42;2.28;;;15.10;68.90;;;;;;5021608;28;20055;-77
2022/07/05 03:53:21;;;;;;;2.58;1.90;;;15.20;70.20;;;;;;5022267;28;20032;-77
2022/07/05 03:55:46;;;;;;;2.38;2.05;;;15.20;69.70;;;;;;5024045;28;20554;-78
2022/07/05 03:58:12;;;;;;;2.28;1.88;;;15.20;68.10;;;;;;5024574;28;20067;-79
2022/07/05 04:00:37;;;;;;;4.03;2.03;;;15.20;68.00;;;;;;5007306;28;20025;-79
2022/07/05 04:03:03;;;;;;;4.55;2.42;;;15.20;69.60;;;;;;5022743;28;20112;-78
2022/07/05 04:05:29;;;;;;;4.60;2.83;;;15.00;67.30;;;;;;5010523;28;20152;-77
2022/07/05 04:07:55;;;;;;;6.80;2.10;;;15.10;67.40;;;;;;5003698;28;20068;-80
2022/07/05 04:10:20;;;;;;;3.88;2.47;;;15.00;67.00;;;;;;5020035;28;20034;-79
2022/07/05 04:12:46;;;;;;;3.35;2.17;;;15.10;67.60;;;;;;4994913;28;20578;-79
2022/07/05 04:15:12;;;;;;;2.58;1.67;;;15.10;69.00;;;;;;5001560;28;20026;-78
2022/07/05 04:17:49;;;;;;;3.53;1.95;;;15.10;68.30;;;;;;5020729;28;20029;-78
2022/07/05 04:20:15;;;;;;;2.20;2.00;;;15.20;68.50;;;;;;5018034;28;20033;-79
2022/07/05 04:22:41;;;;;;;2.42;2.15;;;15.30;71.10;;;;;;5002448;28;20035;-79
2022/07/05 04:25:16;;;;;;;2.22;2.03;;;15.30;70.30;;;;;;5004961;28;20060;-79
2022/07/05 04:27:42;;;;;;;4.70;2.40;;;15.50;69.20;;;;;;5008164;28;20032;-79
2022/07/05 04:30:09;;;;;;;4.00;2.88;;;15.50;70.00;;;;;;5016447;28;20091;-78
2022/07/05 04:32:35;;;;;;;5.80;3.00;;;15.40;67.10;;;;;;5001901;28;20123;-79
2022/07/05 04:35:00;;;;;;;4.75;3.00;;;15.40;67.00;;;;;;5005239;28;20045;-79
2022/07/05 04:37:26;;;;;;;3.55;2.75;;;15.30;67.50;;;;;;5040327;28;20091;-78
2022/07/05 04:39:52;;;;;;;4.15;2.58;;;15.40;68.70;;;;;;5022930;28;20091;-78
2022/07/05 04:42:17;;;;;;;3.90;3.10;;;15.60;68.50;;;;;;5008843;28;20455;-79
2022/07/05 04:44:43;;;;;;;5.97;3.03;;;15.80;68.20;;;;;;4988206;28;20527;-79
2022/07/05 04:47:09;;;;;;;3.28;2.80;;;15.90;68.10;;;;;;5023986;28;20037;-79
2022/07/05 04:49:34;;;;;;;3.92;3.10;;;16.00;70.90;;;;;;5007652;28;20059;-79
2022/07/05 04:52:00;;;;;;;2.75;2.55;;;16.20;72.40;;;;;;4997727;28;20089;-79
2022/07/05 04:54:25;;;;;;;4.05;3.15;;;16.30;71.20;;;;;;5009021;28;20508;-79
2022/07/05 04:56:51;;;;;;;4.63;3.20;;;16.50;70.90;;;;;;4996142;28;20111;-78
2022/07/05 04:59:17;;;;;;;6.95;3.20;;;16.80;71.00;;;;;;5025989;28;20057;-79
2022/07/05 05:01:42;;;;;;;5.15;2.30;;;17.10;70.70;;;;;;4996358;28;20033;-79
2022/07/05 05:04:08;;;;;;;3.38;2.60;;;17.40;71.10;;;;;;5010698;28;20028;-79
2022/07/05 05:06:33;;;;;;;6.80;3.17;;;17.70;70.50;;;;;;5013521;28;20036;-79
2022/07/05 05:08:59;;;;;;;6.95;3.35;;;18.00;70.20;;;;;;5023507;28;20072;-78
2022/07/05 05:11:24;;;;;;;6.40;2.75;;;18.10;69.70;;;;;;5026019;28;20037;-79
2022/07/05 05:13:50;;;;;;;4.93;2.60;;;18.20;69.00;;;;;;5012469;28;20086;-79
2022/07/05 05:16:15;;;;;;;4.28;3.13;;;18.30;68.00;;;;;;5011481;28;20464;-79
2022/07/05 05:18:41;;;;;;;4.32;2.50;;;18.20;66.30;;;;;;5008531;28;20058;-78
2022/07/05 05:21:07;;;;;;;2.97;2.60;;;18.20;67.20;;;;;;5024148;28;20025;-78
2022/07/05 05:23:32;;;;;;;5.80;2.20;;;18.30;67.10;;;;;;5023886;28;20036;-79
2022/07/05 05:25:58;;;;;;;5.28;2.67;;;18.50;66.20;;;;;;5008815;28;20029;-74
2022/07/05 05:28:24;;;;;;;4.78;2.75;;;18.70;65.40;;;;;;5027152;28;20482;-76
2022/07/05 05:30:49;;;;;;;5.45;2.67;;;18.90;67.60;;;;;;5005265;28;20052;-80
2022/07/05 05:33:15;;;;;;;4.05;2.70;;;19.10;68.80;;;;;;5011393;28;20051;-80
2022/07/05 05:35:40;;;;;;;7.13;2.85;;;19.40;68.30;;;;;;4998081;28;20040;-80
2022/07/05 05:38:06;;;;;;;6.93;3.58;;;19.60;67.80;;;;;;5020280;28;20484;-80
2022/07/05 05:40:32;;;;;;;4.60;2.85;;;19.90;68.40;;;;;;4996585;28;20040;-80
2022/07/05 05:42:59;;;;;;;5.20;2.42;;;20.20;67.90;;;;;;5024089;28;20079;-80
2022/07/05 05:45:25;;;;;;;5.30;2.58;;;20.50;67.50;;;;;;5024346;28;20470;-81
2022/07/05 05:47:55;;;;;;;4.57;3.40;;;20.80;67.80;;;;;;4994160;28;20115;-80
2022/07/05 05:50:22;;;;;;;4.50;2.60;;;21.10;67.70;;;;;;4993256;28;20061;-80
2022/07/05 05:52:47;;;;;;;3.08;2.70;;;21.40;67.50;;;;;;5010742;28;20037;-80
2022/07/05 05:55:13;;;;;;;9.13;3.20;;;21.70;66.70;;;;;;5024868;28;20032;-80
2022/07/05 05:57:38;;;;;;;8.05;3.15;;;21.90;66.60;;;;;;5023932;28;20055;-80
2022/07/05 06:00:05;;;;;;;6.80;2.55;;;22.20;66.20;;;;;;5022422;28;20452;-80
2022/07/05 06:02:30;;;;;;;8.98;2.40;;;22.40;65.20;;;;;;5009190;28;20033;-78
2022/07/05 06:04:56;;;;;;;3.60;2.30;;;22.70;65.10;;;;;;5025400;28;20040;-80
2022/07/05 06:07:21;;;;;;;4.68;2.70;;;23.00;64.40;;;;;;4992777;28;20045;-80
2022/07/05 06:09:47;;;;;;;3.45;1.38;;;23.20;63.50;;;;;;5009838;28;20486;-80
2022/07/05 06:12:13;;;;;;;3.45;1.77;;;23.30;59.70;;;;;;5010828;28;20076;-80
2022/07/05 06:14:39;;;;;;;6.72;2.30;;;23.40;63.30;;;;;;5024834;28;20033;-80
2022/07/05 06:17:04;;;;;;;3.30;1.80;;;23.70;63.20;;;;;;5007137;28;20126;-80
2022/07/05 06:19:30;;;;;;;2.92;2.05;;;24.10;62.80;;;;;;5005438;28;20037;-81
2022/07/05 06:21:55;;;;;;;3.88;2.30;;;24.30;61.40;;;;;;5022856;28;20711;-79
2022/07/05 06:24:21;;;;;;;8.27;2.92;;;24.50;60.70;;;;;;5009397;28;20036;-79
2022/07/05 06:26:46;;;;;;;6.15;2.47;;;24.80;60.50;;;;;;5023300;28;20058;-80
2022/07/05 06:29:12;;;;;;;5.88;2.70;;;25.00;60.30;;;;;;5020260;28;20033;-81
2022/07/05 06:31:38;;;;;;;4.95;2.25;;;25.20;59.80;;;;;;5010526;28;20059;-81
2022/07/05 06:34:03;;;;;;;5.40;2.47;;;25.50;59.50;;;;;;5024741;28;20040;-82
2022/07/05 06:36:29;;;;;;;3.67;2.67;;;25.80;58.50;;;;;;5021677;28;20052;-82
2022/07/05 06:38:55;;;;;;;4.80;1.98;;;26.00;58.40;;;;;;5011742;28;20033;-83
2022/07/05 06:41:20;;;;;;;9.63;3.00;;;26.10;57.60;;;;;;5023925;28;20041;-81
2022/07/05 06:43:46;;;;;;;7.30;2.63;;;26.40;56.90;;;;;;5008017;28;20676;-82
2022/07/05 06:46:11;;;;;;;3.42;2.30;;;26.80;55.50;;;;;;5007369;28;20061;-82
2022/07/05 06:48:37;;;;;;;4.15;2.05;;;26.90;55.50;;;;;;5006059;28;20025;-84
2022/07/05 06:51:03;;;;;;;2.20;1.60;;;27.20;55.40;;;;;;4993308;28;20542;-84
2022/07/05 06:53:29;;;;;;;2.22;1.25;;;27.20;53.80;;;;;;5012814;28;20111;-86
2022/07/05 06:55:54;;;;;;;4.57;2.08;;;27.30;53.50;;;;;;5023714;28;20051;-82
2022/07/05 06:58:20;;;;;;;4.15;2.08;;;27.50;52.80;;;;;;5008111;28;20125;-81
2022/07/05 07:00:47;;;;;;;5.60;1.73;;;27.80;52.70;;;;;;5001095;28;20029;-87
2022/07/05 07:03:13;;;;;;;4.28;2.03;;;27.80;51.30;;;;;;5006582;28;20507;-86
2022/07/05 07:05:38;;;;;;;2.28;2.03;;;28.00;51.10;;;;;;5008003;28;20025;-84
2022/07/05 07:10:48;;;;;;;2.42;2.10;;;28.20;51.20;;;;;;5031122;28;20732;-84
2022/07/05 07:13:14;;;;;;;4.95;1.80;;;28.30;50.70;;;;;;5026901;28;20037;-86
2022/07/05 07:15:40;;;;;;;4.45;2.17;;;28.30;50.50;;;;;;5009192;28;20044;-83
2022/07/05 07:18:06;;;;;;;4.53;2.35;;;28.70;50.10;;;;;;5007736;28;20432;-85
2022/07/05 07:20:31;;;;;;;3.33;1.90;;;28.90;48.90;;;;;;5010113;28;20033;-85
2022/07/05 07:22:57;;;;;;;1.50;1.23;;;29.00;48.90;;;;;;5003470;28;20370;-83
2022/07/05 07:25:23;;;;;;;2.58;1.52;;;29.20;48.10;;;;;;4995161;28;20037;-85
2022/07/05 07:27:50;;;;;;;8.07;2.28;;;29.20;48.30;;;;;;5012336;28;20507;-83
2022/07/05 07:30:17;;;;;;;7.47;2.15;;;29.40;48.20;;;;;;5025032;28;20030;-84
2022/07/05 07:32:44;;;;;;;4.30;1.75;;;29.60;46.80;;;;;;5010591;28;20574;-87
2022/07/05 07:35:09;;;;;;;11.50;2.40;;;29.60;47.00;;;;;;5028679;28;20037;-82
2022/07/05 07:37:35;;;;;;;4.93;1.48;;;29.60;47.30;;;;;;5010409;28;20079;-85
2022/07/05 07:40:02;;;;;;;1.92;1.50;;;29.40;47.50;;;;;;5023504;28;20073;-80
2022/07/05 07:42:28;;;;;;;4.03;1.42;;;29.30;47.90;;;;;;5022201;28;20082;-85
2022/07/05 07:44:54;;;;;;;2.70;1.55;;;29.60;47.40;;;;;;5003869;28;20079;-86
2022/07/05 07:47:19;;;;;;;3.92;2.28;;;29.70;46.60;;;;;;5008612;28;20044;-80
2022/07/05 07:49:45;;;;;;;4.15;2.10;;;30.10;45.60;;;;;;4995279;28;20037;-84
2022/07/05 07:52:11;;;;;;;3.92;1.73;;;30.30;46.00;;;;;;5005282;28;20037;-82
2022/07/05 07:54:37;;;;;;;5.63;2.05;;;30.50;45.50;;;;;;4994589;28;20056;-82
2022/07/05 07:57:04;;;;;;;4.45;1.63;;;30.70;45.50;;;;;;5006516;28;20060;-83
2022/07/05 07:59:31;;;;;;;1.88;1.50;;;31.00;44.70;;;;;;4995764;28;20041;-80
2022/07/05 08:01:56;;;;;;;3.00;1.15;;;31.10;44.20;;;;;;4987588;28;20120;-83
2022/07/05 08:04:22;;;;;;;2.13;1.20;;;31.00;44.10;;;;;;5020593;28;20111;-80
2022/07/05 08:06:48;;;;;;;6.15;1.17;;;30.80;44.40;;;;;;5003455;28;20044;-82
2022/07/05 08:09:13;;;;;;;3.75;1.77;;;30.70;44.40;;;;;;5009433;28;20033;-81
2022/07/05 08:11:39;;;;;;;4.43;1.73;;;30.90;43.70;;;;;;5008189;28;20040;-83
2022/07/05 08:14:05;;;;;;;4.03;1.27;;;30.90;42.80;;;;;;5009075;28;20029;-82
2022/07/05 08:16:30;;;;;;;4.80;1.38;;;30.90;43.00;;;;;;4993061;28;20037;-81
2022/07/05 08:21:40;;;;;;;3.28;1.55;;;30.60;43.10;;;;;;5004971;28;20123;-81
2022/07/05 08:24:07;;;;;;;4.63;1.70;;;30.80;43.10;;;;;;5018815;28;20037;-82
2022/07/05 08:26:33;;;;;;;3.28;1.85;;;31.10;43.00;;;;;;5011025;28;20029;-82
2022/07/05 08:28:59;;;;;;;1.90;0.98;;;31.30;42.80;;;;;;4995433;28;20074;-83
2022/07/05 08:31:26;;;;;;;2.90;1.60;;;31.50;43.00;;;;;;5011879;28;20028;-80
2022/07/05 08:33:51;;;;;;;2.88;1.50;;;31.30;42.50;;;;;;4992451;28;20521;-82
2022/07/05 08:36:17;;;;;;;3.22;1.60;;;31.60;42.00;;;;;;5023196;28;21423;-82
2022/07/05 08:38:43;;;;;;;3.10;1.38;;;31.50;41.70;;;;;;5004857;28;20025;-82
2022/07/05 08:41:09;;;;;;;4.63;1.30;;;31.30;41.80;;;;;;5004862;28;20132;-81
2022/07/05 08:43:44;;;;;;;2.50;1.15;;;30.80;42.80;;;;;;5006085;28;20041;-82
2022/07/05 08:46:10;;;;;;;3.05;1.50;;;30.60;42.80;;;;;;5008689;28;20045;-82
2022/07/05 08:48:42;;;;;;;2.60;1.58;;;30.40;42.30;;;;;;5004029;28;20439;-82
2022/07/05 08:51:11;;;;;;;3.42;1.40;;;30.30;42.60;;;;;;4990870;28;20872;-83
2022/07/05 08:53:37;;;;;;;2.20;1.20;;;30.10;42.70;;;;;;5036105;28;20037;-81
2022/07/05 08:56:03;;;;;;;4.10;1.42;;;30.00;42.60;;;;;;5006955;28;20029;-81
2022/07/05 08:58:29;;;;;;;4.78;1.30;;;29.80;42.70;;;;;;5010924;28;20119;-82
2022/07/05 09:00:55;;;;;;;5.85;1.60;;;29.60;42.80;;;;;;4994723;28;20531;-82
2022/07/05 09:03:20;;;;;;;6.13;1.73;;;29.30;43.00;;;;;;5021211;28;20029;-81
2022/07/05 09:05:46;;;;;;;5.05;1.77;;;29.20;43.10;;;;;;4991895;28;20029;-82
2022/07/05 09:08:16;;;;;;;2.55;1.38;;;29.20;43.80;;;;;;5006032;28;20053;-82
2022/07/05 09:10:43;;;;;;;3.20;1.65;;;29.30;43.80;;;;;;4993937;28;20033;-84
2022/07/05 09:13:09;;;;;;;3.28;1.95;;;29.20;43.90;;;;;;5007273;28;20079;-83
2022/07/05 09:15:37;;;;;;;3.30;1.80;;;29.60;43.40;;;;;;4992523;28;20030;-81
2022/07/05 09:18:03;;;;;;;2.03;1.23;;;30.00;42.30;;;;;;5002846;28;20497;-82
2022/07/05 09:20:29;;;;;;;3.15;1.42;;;30.20;43.40;;;;;;5021640;28;20033;-83
2022/07/05 09:22:55;;;;;;;2.90;1.50;;;30.40;42.90;;;;;;4993510;28;20029;-82
2022/07/05 09:25:24;;;;;;;8.23;1.85;;;30.50;42.90;;;;;;5005908;28;20029;-83
2022/07/05 09:27:56;;;;;;;1.63;0.95;;;30.70;42.00;;;;;;5020681;28;20091;-84
2022/07/05 09:30:36;;;;;;;5.20;1.30;;;30.60;42.30;;;;;;5021589;28;20043;-82
2022/07/05 09:33:05;;;;;;;2.38;1.40;;;30.60;41.20;;;;;;5019330;28;20116;-83
2022/07/05 09:35:31;;;;;;;4.50;1.25;;;30.50;41.40;;;;;;5012561;28;20191;-82
2022/07/05 09:37:57;;;;;;;1.35;0.85;;;30.20;41.70;;;;;;5007513;28;20030;-82
2022/07/05 09:40:23;;;;;;;5.72;1.30;;;30.00;41.80;;;;;;5024671;28;20531;-80
2022/07/05 09:42:49;;;;;;;5.25;1.40;;;29.90;41.70;;;;;;4998131;28;20041;-82
2022/07/05 09:45:23;;;;;;;2.20;1.10;;;30.00;41.80;;;;;;5025939;28;20033;-80
2022/07/05 09:47:48;;;;;;;1.27;0.90;;;30.20;41.60;;;;;;5009396;28;20059;-82
2022/07/05 09:50:14;;;;;;;4.03;1.35;;;30.30;41.60;;;;;;5008958;28;20029;-83
2022/07/05 09:52:41;;;;;;;1.38;1.15;;;30.50;40.70;;;;;;5007389;28;20032;-83
2022/07/05 09:55:17;;;;;;;3.15;1.02;;;30.60;41.20;;;;;;5003881;28;20037;-84
2022/07/05 09:57:46;;;;;;;2.08;0.80;;;30.80;41.20;;;;;;5009533;28;20555;-82
2022/07/05 10:00:14;;;;;;;3.72;0.88;;;31.00;40.80;;;;;;5006238;28;20029;-80
2022/07/05 10:02:41;;;;;;;2.05;1.00;;;31.10;40.60;;;;;;5012767;28;20788;-79
2022/07/05 10:05:10;;;;;;;1.77;0.60;;;31.00;40.20;;;;;;5025196;28;20034;-79
2022/07/05 10:07:36;;;;;;;1.98;0.93;;;31.30;39.10;;;;;;5007697;28;20523;-79
2022/07/05 10:10:02;;;;;;;1.33;1.10;;;31.60;39.40;;;;;;5009752;28;20388;-78
2022/07/05 10:12:28;;;;;;;1.75;0.88;;;31.80;38.80;;;;;;5012240;28;20026;-79
2022/07/05 10:14:54;;;;;;;2.30;1.42;;;32.00;38.30;;;;;;5011361;28;20044;-78
2022/07/05 10:17:19;;;;;;;1.90;1.05;;;32.10;38.40;;;;;;5025750;28;20030;-79
2022/07/05 10:19:46;;;;;;;1.45;0.90;;;32.50;38.70;;;;;;5008405;28;20037;-78
2022/07/05 10:22:11;;;;;;;2.83;1.15;;;32.90;37.60;;;;;;5023837;28;20033;-78
2022/07/05 10:24:37;;;;;;;2.58;1.00;;;33.10;38.10;;;;;;5025953;28;20044;-78
2022/07/05 10:27:05;;;;;;;1.48;0.90;;;33.50;38.00;;;;;;5024353;28;20041;-78
2022/07/05 10:29:31;;;;;;;3.20;1.67;;;33.80;35.70;;;;;;5023067;28;20112;-78
2022/07/05 10:31:57;;;;;;;3.45;1.10;;;33.90;36.50;;;;;;5025632;28;20128;-78
2022/07/05 10:34:23;;;;;;;3.08;0.88;;;33.50;35.50;;;;;;5008158;28;20061;-78
2022/07/05 10:36:48;;;;;;;1.55;0.93;;;33.40;35.70;;;;;;5005483;28;20076;-78
2022/07/05 10:39:14;;;;;;;2.15;0.80;;;33.10;35.70;;;;;;5007781;28;20417;-78
2022/07/05 10:41:40;;;;;;;1.85;0.98;;;32.90;36.10;;;;;;5021219;28;20033;-77
2022/07/05 10:44:07;;;;;;;2.10;0.93;;;32.50;37.00;;;;;;5006222;28;20053;-77
2022/07/05 10:46:36;;;;;;;3.08;1.20;;;32.40;36.90;;;;;;4992996;28;20033;-77
2022/07/05 10:49:20;;;;;;;2.67;1.00;;;32.70;36.00;;;;;;5010122;28;20037;-77
2022/07/05 10:51:45;;;;;;;2.17;0.85;;;32.80;36.20;;;;;;5024081;28;20547;-78
2022/07/05 10:54:11;;;;;;;1.10;0.80;;;33.00;36.10;;;;;;5024596;28;20148;-78
2022/07/05 10:56:38;;;;;;;2.42;0.90;;;32.90;36.10;;;;;;5010255;28;20044;-78
2022/07/05 10:59:11;;;;;;;3.85;1.30;;;32.90;36.20;;;;;;5020320;28;20045;-78
2022/07/05 11:01:42;;;;;;;4.13;1.25;;;32.70;36.00;;;;;;5011729;28;20121;-77
2022/07/05 11:04:19;;;;;;;2.65;1.50;;;32.60;35.60;;;;;;5007072;28;20033;-78
2022/07/05 11:06:46;;;;;;;2.17;1.17;;;32.40;36.70;;;;;;5009986;28;20807;-78
2022/07/05 11:09:11;;;;;;;1.58;0.98;;;32.50;35.00;;;;;;5022253;28;20033;-78
2022/07/05 11:11:43;;;;;;;1.83;1.02;;;32.60;36.10;;;;;;5038689;28;20045;-78
2022/07/05 11:14:21;;;;;;;2.30;0.90;;;32.60;36.40;;;;;;5022781;28;20053;-78
2022/07/05 11:16:47;;;;;;;1.23;0.80;;;32.80;35.80;;;;;;5027209;28;20027;-78
2022/07/05 11:19:16;;;;;;;4.68;0.80;;;32.90;36.50;;;;;;5010705;28;20040;-78
2022/07/05 11:22:05;;;;;;;1.02;0.60;;;33.00;35.30;;;;;;4996395;28;20082;-77
2022/07/05 11:24:32;;;;;;;1.35;0.82;;;33.00;35.30;;;;;;4996589;28;20048;-78
2022/07/05 11:26:59;;;;;;;2.00;1.20;;;33.20;35.40;;;;;;5011958;28;20033;-78
2022/07/05 11:29:43;;;;;;;3.58;1.35;;;33.60;35.50;;;;;;5025927;28;20047;-77
2022/07/05 11:32:16;;;;;;;3.35;1.30;;;33.70;35.00;;;;;;5022336;28;20033;-77
2022/07/05 11:34:42;;;;;;;1.83;1.42;;;33.60;35.20;;;;;;4994135;28;20496;-78
2022/07/05 11:37:14;;;;;;;4.07;1.83;;;33.50;35.10;;;;;;4992405;28;20040;-77
2022/07/05 11:39:41;;;;;;;3.20;1.63;;;33.40;35.60;;;;;;5036653;28;20492;-76
2022/07/05 11:42:08;;;;;;;3.42;1.60;;;33.20;35.70;;;;;;5020454;28;20401;-76
2022/07/05 11:44:34;;;;;;;4.75;1.60;;;33.10;35.80;;;;;;5012064;28;20413;-76
2022/07/05 11:47:00;;;;;;;2.85;1.15;;;33.00;36.10;;;;;;5017908;28;20028;-76
2022/07/05 11:49:26;;;;;;;2.85;1.30;;;33.00;36.30;;;;;;4989860;28;20040;-77
2022/07/05 11:52:01;;;;;;;1.20;1.05;;;32.90;36.50;;;;;;5001403;28;20079;-76
2022/07/05 11:54:30;;;;;;;3.22;1.17;;;32.80;35.90;;;;;;5004402;28;20037;-76
2022/07/05 11:56:56;;;;;;;2.47;0.93;;;32.90;35.00;;;;;;5020272;28;20041;-76
2022/07/05 11:59:23;;;;;;;3.20;1.20;;;33.10;35.10;;;;;;5022019;28;20519;-76
2022/07/05 12:01:48;;;;;;;1.83;0.88;;;33.20;35.20;;;;;;5018426;28;20734;-77
2022/07/05 12:04:27;;;;;;;2.65;1.40;;;33.20;36.10;;;;;;5009105;28;20108;-76
2022/07/05 12:06:52;;;;;;;1.27;1.02;;;33.30;35.30;;;;;;4992450;28;20029;-76
2022/07/05 12:15:06;;;;;;;2.08;1.05;;;33.10;35.60;;;;;;5009094;28;20159;-79
2022/07/05 12:17:33;;;;;;;3.55;0.98;;;33.20;36.00;;;;;;5006487;28;20400;-78
2022/07/05 12:19:59;;;;;;;1.45;0.90;;;33.40;35.20;;;;;;5005860;28;20094;-79
2022/07/05 12:22:44;;;;;;;1.00;0.90;;;33.40;35.90;;;;;;5006200;28;20040;-78
2022/07/05 12:25:14;;;;;;;1.05;0.95;;;33.60;35.10;;;;;;5025025;28;20029;-78
2022/07/05 12:27:40;;;;;;;3.42;1.15;;;33.40;34.40;;;;;;4993732;28;20082;-78
2022/07/05 12:30:08;;;;;;;2.13;1.20;;;33.40;34.60;;;;;;5008788;28;20033;-78
2022/07/05 12:32:36;;;;;;;1.63;0.82;;;33.30;34.40;;;;;;5006884;28;20032;-78
2022/07/05 12:35:02;;;;;;;3.22;0.93;;;33.20;35.10;;;;;;5020927;28;20037;-77
2022/07/05 12:37:29;;;;;;;3.60;1.20;;;33.40;33.90;;;;;;5040473;28;20113;-77
2022/07/05 12:40:08;;;;;;;2.78;0.90;;;33.50;33.70;;;;;;5010111;28;20051;-77
2022/07/05 12:42:35;;;;;;;4.13;1.02;;;33.40;34.30;;;;;;5011440;28;20029;-78
2022/07/05 12:45:13;;;;;;;0.98;0.85;;;33.40;34.10;;;;;;5004578;28;20041;-77
2022/07/05 12:47:59;;;;;;;2.20;1.30;;;33.30;34.70;;;;;;5003856;28;20094;-77
2022/07/05 12:50:29;;;;;;;1.50;0.90;;;33.40;34.60;;;;;;5036324;28;20048;-77
2022/07/05 12:58:01;;;;;;;1.20;1.00;;;33.60;34.30;;;;;;4993886;28;20064;-77
2022/07/05 12:58:32;;;;;;;1.58;0.90;;;33.90;33.60;;;;;;5020940;28;20083;-77
2022/07/05 13:00:58;;;;;;;1.98;1.10;;;34.00;32.50;;;;;;5005826;28;20060;-77
2022/07/05 13:03:23;;;;;;;1.90;1.23;;;34.00;32.80;;;;;;5019240;28;20033;-78